sensor_id;sensor_type;location;lat;lon;timestamp;temperature;humidity
53653;DHT22;39553;52.954;5.932;2023-04-19T00:01:42;7.40;99.90
53653;DHT22;39553;52.954;5.932;2023-04-19T00:04:14;7.40;99.90
53653;DHT22;39553;52.954;5.932;2023-04-19T00:06:45;7.40;99.90
53653;DHT22;39553;52.954;5.932;2023-04-19T00:09:12;7.40;99.90
53653;DHT22;39553;52.954;5.932;2023-04-19T00:11:45;8.20;99.90
53653;DHT22;39553;52.954;5.932;2023-04-19T00:14:11;7.30;99.90
53653;DHT22;39553;52.954;5.932;2023-04-19T00:16:38;6.70;99.90
53653;DHT22;39553;52.954;5.932;2023-04-19T00:19:06;7.30;99.90
53653;DHT22;39553;52.954;5.932;2023-04-19T00:21:40;7.20;99.90
53653;DHT22;39553;52.954;5.932;2023-04-19T00:24:08;7.40;99.90
53653;DHT22;39553;52.954;5.932;2023-04-19T00:26:35;7.20;99.90
53653;DHT22;39553;52.954;5.932;2023-04-19T00:29:01;7.20;99.90
53653;DHT22;39553;52.954;5.932;2023-04-19T00:31:29;7.20;99.90
53653;DHT22;39553;52.954;5.932;2023-04-19T00:33:56;6.80;99.90
53653;DHT22;39553;52.954;5.932;2023-04-19T00:36:34;7.10;99.90
53653;DHT22;39553;52.954;5.932;2023-04-19T00:39:03;7.10;99.90
53653;DHT22;39553;52.954;5.932;2023-04-19T00:41:30;7.20;99.90
53653;DHT22;39553;52.954;5.932;2023-04-19T00:43:57;6.20;99.90
53653;DHT22;39553;52.954;5.932;2023-04-19T00:46:29;6.80;99.90
53653;DHT22;39553;52.954;5.932;2023-04-19T00:48:56;6.40;99.90
53653;DHT22;39553;52.954;5.932;2023-04-19T00:51:22;7.20;99.90
53653;DHT22;39553;52.954;5.932;2023-04-19T00:54:01;7.00;99.90
53653;DHT22;39553;52.954;5.932;2023-04-19T00:56:28;6.70;99.90
53653;DHT22;39553;52.954;5.932;2023-04-19T00:58:55;7.30;99.90
53653;DHT22;39553;52.954;5.932;2023-04-19T01:01:23;6.90;99.90
53653;DHT22;39553;52.954;5.932;2023-04-19T01:03:52;6.90;99.90
53653;DHT22;39553;52.954;5.932;2023-04-19T01:06:22;6.80;99.90
53653;DHT22;39553;52.954;5.932;2023-04-19T01:08:50;7.10;99.90
53653;DHT22;39553;52.954;5.932;2023-04-19T01:11:16;6.90;99.90
53653;DHT22;39553;52.954;5.932;2023-04-19T01:13:42;6.80;99.90
53653;DHT22;39553;52.954;5.932;2023-04-19T01:16:14;7.10;99.90
53653;DHT22;39553;52.954;5.932;2023-04-19T01:18:51;6.80;99.90
53653;DHT22;39553;52.954;5.932;2023-04-19T01:21:20;6.80;99.90
53653;DHT22;39553;52.954;5.932;2023-04-19T01:23:53;6.80;99.90
53653;DHT22;39553;52.954;5.932;2023-04-19T01:26:22;6.80;99.90
53653;DHT22;39553;52.954;5.932;2023-04-19T01:29:00;6.80;99.90
53653;DHT22;39553;52.954;5.932;2023-04-19T01:31:35;6.80;99.90
53653;DHT22;39553;52.954;5.932;2023-04-19T01:34:01;5.90;99.90
53653;DHT22;39553;52.954;5.932;2023-04-19T01:36:27;6.60;99.90
53653;DHT22;39553;52.954;5.932;2023-04-19T01:38:59;6.70;99.90
53653;DHT22;39553;52.954;5.932;2023-04-19T01:41:25;6.70;99.90
53653;DHT22;39553;52.954;5.932;2023-04-19T01:43:57;7.60;99.90
53653;DHT22;39553;52.954;5.932;2023-04-19T01:46:28;6.70;99.90
53653;DHT22;39553;52.954;5.932;2023-04-19T01:48:58;6.70;99.90
53653;DHT22;39553;52.954;5.932;2023-04-19T01:51:24;6.20;99.90
53653;DHT22;39553;52.954;5.932;2023-04-19T01:53:56;6.60;99.90
53653;DHT22;39553;52.954;5.932;2023-04-19T01:56:26;6.60;99.90
53653;DHT22;39553;52.954;5.932;2023-04-19T01:58:56;6.80;99.90
53653;DHT22;39553;52.954;5.932;2023-04-19T02:01:22;6.60;99.90
53653;DHT22;39553;52.954;5.932;2023-04-19T02:03:49;6.60;99.90
53653;DHT22;39553;52.954;5.932;2023-04-19T02:06:15;6.60;99.90
53653;DHT22;39553;52.954;5.932;2023-04-19T02:08:42;5.90;99.90
53653;DHT22;39553;52.954;5.932;2023-04-19T02:11:08;6.70;99.90
53653;DHT22;39553;52.954;5.932;2023-04-19T02:13:35;6.70;99.90
53653;DHT22;39553;52.954;5.932;2023-04-19T02:16:01;6.70;99.90
53653;DHT22;39553;52.954;5.932;2023-04-19T02:18:30;6.70;99.90
53653;DHT22;39553;52.954;5.932;2023-04-19T02:20:57;6.60;99.90
53653;DHT22;39553;52.954;5.932;2023-04-19T02:23:23;6.90;99.90
53653;DHT22;39553;52.954;5.932;2023-04-19T02:25:50;7.50;99.90
53653;DHT22;39553;52.954;5.932;2023-04-19T02:28:16;6.60;99.90
53653;DHT22;39553;52.954;5.932;2023-04-19T02:30:42;6.60;99.90
53653;DHT22;39553;52.954;5.932;2023-04-19T02:33:08;6.70;99.90
53653;DHT22;39553;52.954;5.932;2023-04-19T02:35:33;6.60;99.90
53653;DHT22;39553;52.954;5.932;2023-04-19T02:38:01;6.60;99.90
53653;DHT22;39553;52.954;5.932;2023-04-19T02:40:27;7.90;99.90
53653;DHT22;39553;52.954;5.932;2023-04-19T02:42:52;6.50;99.90
53653;DHT22;39553;52.954;5.932;2023-04-19T02:45:18;6.50;99.90
53653;DHT22;39553;52.954;5.932;2023-04-19T02:47:44;6.60;99.90
53653;DHT22;39553;52.954;5.932;2023-04-19T02:50:11;6.40;99.90
53653;DHT22;39553;52.954;5.932;2023-04-19T02:52:38;6.40;99.90
53653;DHT22;39553;52.954;5.932;2023-04-19T02:55:05;6.40;99.90
53653;DHT22;39553;52.954;5.932;2023-04-19T02:57:31;6.40;99.90
53653;DHT22;39553;52.954;5.932;2023-04-19T02:59:57;6.30;99.90
53653;DHT22;39553;52.954;5.932;2023-04-19T03:02:24;6.70;99.90
53653;DHT22;39553;52.954;5.932;2023-04-19T03:04:50;6.30;99.90
53653;DHT22;39553;52.954;5.932;2023-04-19T03:07:17;6.30;99.90
53653;DHT22;39553;52.954;5.932;2023-04-19T03:09:43;6.30;99.90
53653;DHT22;39553;52.954;5.932;2023-04-19T03:12:09;6.30;99.90
53653;DHT22;39553;52.954;5.932;2023-04-19T03:14:35;6.30;99.90
53653;DHT22;39553;52.954;5.932;2023-04-19T03:17:01;6.90;99.90
53653;DHT22;39553;52.954;5.932;2023-04-19T03:19:27;6.20;99.90
53653;DHT22;39553;52.954;5.932;2023-04-19T03:21:53;6.20;99.90
53653;DHT22;39553;52.954;5.932;2023-04-19T03:24:19;5.20;99.90
53653;DHT22;39553;52.954;5.932;2023-04-19T03:26:51;6.20;99.90
53653;DHT22;39553;52.954;5.932;2023-04-19T03:29:17;6.20;99.90
53653;DHT22;39553;52.954;5.932;2023-04-19T03:31:43;6.10;99.90
53653;DHT22;39553;52.954;5.932;2023-04-19T03:34:09;6.20;99.90
53653;DHT22;39553;52.954;5.932;2023-04-19T03:36:35;5.90;99.90
53653;DHT22;39553;52.954;5.932;2023-04-19T03:39:02;7.10;99.90
53653;DHT22;39553;52.954;5.932;2023-04-19T03:41:28;6.00;99.90
53653;DHT22;39553;52.954;5.932;2023-04-19T03:43:54;6.00;99.90
53653;DHT22;39553;52.954;5.932;2023-04-19T03:46:20;5.90;99.90
53653;DHT22;39553;52.954;5.932;2023-04-19T03:48:46;6.00;99.90
53653;DHT22;39553;52.954;5.932;2023-04-19T03:51:12;5.90;99.90
53653;DHT22;39553;52.954;5.932;2023-04-19T03:53:39;5.90;99.90
53653;DHT22;39553;52.954;5.932;2023-04-19T03:56:05;5.90;99.90
53653;DHT22;39553;52.954;5.932;2023-04-19T03:58:30;5.80;99.90
53653;DHT22;39553;52.954;5.932;2023-04-19T04:00:58;5.80;99.90
53653;DHT22;39553;52.954;5.932;2023-04-19T04:03:24;6.90;99.90
53653;DHT22;39553;52.954;5.932;2023-04-19T04:05:50;6.90;99.90
53653;DHT22;39553;52.954;5.932;2023-04-19T04:08:15;5.70;99.90
53653;DHT22;39553;52.954;5.932;2023-04-19T04:10:41;5.70;99.90
53653;DHT22;39553;52.954;5.932;2023-04-19T04:13:07;5.70;99.90
53653;DHT22;39553;52.954;5.932;2023-04-19T04:15:33;5.60;99.90
53653;DHT22;39553;52.954;5.932;2023-04-19T04:17:59;5.60;99.90
53653;DHT22;39553;52.954;5.932;2023-04-19T04:20:24;5.60;99.90
53653;DHT22;39553;52.954;5.932;2023-04-19T04:22:50;5.60;99.90
53653;DHT22;39553;52.954;5.932;2023-04-19T04:25:17;5.50;99.90
53653;DHT22;39553;52.954;5.932;2023-04-19T04:27:43;5.50;99.90
53653;DHT22;39553;52.954;5.932;2023-04-19T04:30:09;5.50;99.90
53653;DHT22;39553;52.954;5.932;2023-04-19T04:32:36;5.40;99.90
53653;DHT22;39553;52.954;5.932;2023-04-19T04:35:03;5.40;99.90
53653;DHT22;39553;52.954;5.932;2023-04-19T04:37:35;5.40;99.90
53653;DHT22;39553;52.954;5.932;2023-04-19T04:40:03;5.30;99.90
53653;DHT22;39553;52.954;5.932;2023-04-19T04:42:32;5.00;99.90
53653;DHT22;39553;52.954;5.932;2023-04-19T04:44:58;5.20;99.90
53653;DHT22;39553;52.954;5.932;2023-04-19T04:47:33;4.40;99.90
53653;DHT22;39553;52.954;5.932;2023-04-19T04:49:59;5.30;99.90
53653;DHT22;39553;52.954;5.932;2023-04-19T04:52:25;5.70;99.90
53653;DHT22;39553;52.954;5.932;2023-04-19T04:54:51;5.30;99.90
53653;DHT22;39553;52.954;5.932;2023-04-19T04:57:17;5.30;99.90
53653;DHT22;39553;52.954;5.932;2023-04-19T04:59:42;5.30;99.90
53653;DHT22;39553;52.954;5.932;2023-04-19T05:02:08;5.30;99.90
53653;DHT22;39553;52.954;5.932;2023-04-19T05:04:35;5.30;99.90
53653;DHT22;39553;52.954;5.932;2023-04-19T05:07:01;5.30;99.90
53653;DHT22;39553;52.954;5.932;2023-04-19T05:09:27;5.40;99.90
53653;DHT22;39553;52.954;5.932;2023-04-19T05:11:53;5.50;99.90
53653;DHT22;39553;52.954;5.932;2023-04-19T05:14:18;5.60;99.90
53653;DHT22;39553;52.954;5.932;2023-04-19T05:16:44;5.70;99.90
53653;DHT22;39553;52.954;5.932;2023-04-19T05:19:10;5.70;99.90
53653;DHT22;39553;52.954;5.932;2023-04-19T05:21:36;6.10;99.90
53653;DHT22;39553;52.954;5.932;2023-04-19T05:24:05;6.10;99.90
53653;DHT22;39553;52.954;5.932;2023-04-19T05:26:31;6.30;99.90
53653;DHT22;39553;52.954;5.932;2023-04-19T05:28:58;6.60;99.90
53653;DHT22;39553;52.954;5.932;2023-04-19T05:31:23;7.40;99.90
53653;DHT22;39553;52.954;5.932;2023-04-19T05:33:49;7.10;99.90
53653;DHT22;39553;52.954;5.932;2023-04-19T05:36:16;7.20;99.60
53653;DHT22;39553;52.954;5.932;2023-04-19T05:38:42;7.50;99.50
53653;DHT22;39553;52.954;5.932;2023-04-19T05:41:07;7.60;98.50
53653;DHT22;39553;52.954;5.932;2023-04-19T05:43:33;7.70;98.20
53653;DHT22;39553;52.954;5.932;2023-04-19T05:45:59;7.80;97.90
53653;DHT22;39553;52.954;5.932;2023-04-19T05:48:25;8.00;97.50
53653;DHT22;39553;52.954;5.932;2023-04-19T05:50:51;7.90;97.20
53653;DHT22;39553;52.954;5.932;2023-04-19T05:53:19;8.20;96.40
53653;DHT22;39553;52.954;5.932;2023-04-19T05:55:45;8.10;96.10
53653;DHT22;39553;52.954;5.932;2023-04-19T05:58:15;8.00;96.30
53653;DHT22;39553;52.954;5.932;2023-04-19T06:00:41;8.00;96.00
53653;DHT22;39553;52.954;5.932;2023-04-19T06:03:08;8.10;96.10
53653;DHT22;39553;52.954;5.932;2023-04-19T06:05:34;7.90;95.20
53653;DHT22;39553;52.954;5.932;2023-04-19T06:08:00;8.50;95.20
53653;DHT22;39553;52.954;5.932;2023-04-19T06:10:26;8.80;95.10
53653;DHT22;39553;52.954;5.932;2023-04-19T06:12:52;8.90;94.40
53653;DHT22;39553;52.954;5.932;2023-04-19T06:15:19;9.60;94.40
53653;DHT22;39553;52.954;5.932;2023-04-19T06:17:45;10.20;93.20
53653;DHT22;39553;52.954;5.932;2023-04-19T06:20:11;9.80;92.40
53653;DHT22;39553;52.954;5.932;2023-04-19T06:22:43;9.80;92.00
53653;DHT22;39553;52.954;5.932;2023-04-19T06:25:09;9.70;91.30
53653;DHT22;39553;52.954;5.932;2023-04-19T06:27:35;9.40;91.10
53653;DHT22;39553;52.954;5.932;2023-04-19T06:30:02;9.10;91.00
53653;DHT22;39553;52.954;5.932;2023-04-19T06:32:28;8.70;91.40
53653;DHT22;39553;52.954;5.932;2023-04-19T06:34:54;8.50;91.40
53653;DHT22;39553;52.954;5.932;2023-04-19T06:37:19;8.30;91.50
53653;DHT22;39553;52.954;5.932;2023-04-19T06:39:45;8.20;90.50
53653;DHT22;39553;52.954;5.932;2023-04-19T06:42:11;8.20;91.30
53653;DHT22;39553;52.954;5.932;2023-04-19T06:44:37;8.40;91.30
53653;DHT22;39553;52.954;5.932;2023-04-19T06:47:03;8.90;91.10
53653;DHT22;39553;52.954;5.932;2023-04-19T06:49:29;9.50;90.30
53653;DHT22;39553;52.954;5.932;2023-04-19T06:51:55;10.40;89.90
53653;DHT22;39553;52.954;5.932;2023-04-19T06:54:22;10.90;86.90
53653;DHT22;39553;52.954;5.932;2023-04-19T06:56:49;11.00;85.00
53653;DHT22;39553;52.954;5.932;2023-04-19T06:59:19;11.80;84.20
53653;DHT22;39553;52.954;5.932;2023-04-19T07:01:46;12.00;80.70
53653;DHT22;39553;52.954;5.932;2023-04-19T07:04:13;12.20;79.00
53653;DHT22;39553;52.954;5.932;2023-04-19T07:06:39;12.20;78.00
53653;DHT22;39553;52.954;5.932;2023-04-19T07:09:06;12.40;77.90
53653;DHT22;39553;52.954;5.932;2023-04-19T07:11:32;12.60;76.80
53653;DHT22;39553;52.954;5.932;2023-04-19T07:13:58;12.70;75.80
53653;DHT22;39553;52.954;5.932;2023-04-19T07:16:26;12.70;74.30
53653;DHT22;39553;52.954;5.932;2023-04-19T07:18:52;12.80;73.70
53653;DHT22;39553;52.954;5.932;2023-04-19T07:21:18;13.00;73.70
53653;DHT22;39553;52.954;5.932;2023-04-19T07:23:44;13.10;71.30
53653;DHT22;39553;52.954;5.932;2023-04-19T07:26:13;13.30;71.10
53653;DHT22;39553;52.954;5.932;2023-04-19T07:28:39;13.30;68.60
53653;DHT22;39553;52.954;5.932;2023-04-19T07:31:05;13.20;69.00
53653;DHT22;39553;52.954;5.932;2023-04-19T07:33:31;13.50;68.80
53653;DHT22;39553;52.954;5.932;2023-04-19T07:35:57;13.60;67.90
53653;DHT22;39553;52.954;5.932;2023-04-19T07:38:23;14.00;67.50
53653;DHT22;39553;52.954;5.932;2023-04-19T07:40:49;14.10;65.80
53653;DHT22;39553;52.954;5.932;2023-04-19T07:43:15;13.90;63.90
53653;DHT22;39553;52.954;5.932;2023-04-19T07:45:41;14.00;63.70
53653;DHT22;39553;52.954;5.932;2023-04-19T07:48:07;13.90;61.10
53653;DHT22;39553;52.954;5.932;2023-04-19T07:50:33;13.90;61.60
53653;DHT22;39553;52.954;5.932;2023-04-19T07:52:59;13.80;59.70
53653;DHT22;39553;52.954;5.932;2023-04-19T07:55:26;14.20;61.20
53653;DHT22;39553;52.954;5.932;2023-04-19T07:57:52;14.30;60.50
53653;DHT22;39553;52.954;5.932;2023-04-19T08:00:18;14.90;61.00
53653;DHT22;39553;52.954;5.932;2023-04-19T08:02:47;14.80;59.00
53653;DHT22;39553;52.954;5.932;2023-04-19T08:05:14;14.70;57.00
53653;DHT22;39553;52.954;5.932;2023-04-19T08:07:44;14.70;55.50
53653;DHT22;39553;52.954;5.932;2023-04-19T08:10:11;14.70;55.70
53653;DHT22;39553;52.954;5.932;2023-04-19T08:12:37;14.50;54.20
53653;DHT22;39553;52.954;5.932;2023-04-19T08:15:08;14.80;55.20
53653;DHT22;39553;52.954;5.932;2023-04-19T08:17:34;15.00;53.20
53653;DHT22;39553;52.954;5.932;2023-04-19T08:20:00;15.10;53.00
53653;DHT22;39553;52.954;5.932;2023-04-19T08:22:26;15.20;52.40
53653;DHT22;39553;52.954;5.932;2023-04-19T08:24:52;15.00;45.20
53653;DHT22;39553;52.954;5.932;2023-04-19T08:27:19;15.00;51.00
53653;DHT22;39553;52.954;5.932;2023-04-19T08:29:45;15.20;50.80
53653;DHT22;39553;52.954;5.932;2023-04-19T08:32:11;15.20;50.20
53653;DHT22;39553;52.954;5.932;2023-04-19T08:34:38;15.10;48.70
53653;DHT22;39553;52.954;5.932;2023-04-19T08:37:05;15.10;48.40
53653;DHT22;39553;52.954;5.932;2023-04-19T08:39:32;15.40;48.40
53653;DHT22;39553;52.954;5.932;2023-04-19T08:42:05;15.70;48.40
53653;DHT22;39553;52.954;5.932;2023-04-19T08:44:32;15.90;45.70
53653;DHT22;39553;52.954;5.932;2023-04-19T08:46:59;15.40;46.00
53653;DHT22;39553;52.954;5.932;2023-04-19T08:49:27;15.60;46.50
53653;DHT22;39553;52.954;5.932;2023-04-19T08:51:56;15.80;45.90
53653;DHT22;39553;52.954;5.932;2023-04-19T08:54:22;15.60;44.60
53653;DHT22;39553;52.954;5.932;2023-04-19T08:56:49;15.80;44.50
53653;DHT22;39553;52.954;5.932;2023-04-19T08:59:17;15.90;43.10
53653;DHT22;39553;52.954;5.932;2023-04-19T09:01:43;15.70;40.00
53653;DHT22;39553;52.954;5.932;2023-04-19T09:04:08;15.70;41.30
53653;DHT22;39553;52.954;5.932;2023-04-19T09:06:36;16.20;42.00
53653;DHT22;39553;52.954;5.932;2023-04-19T09:09:19;16.10;39.90
53653;DHT22;39553;52.954;5.932;2023-04-19T09:11:46;16.40;38.50
53653;DHT22;39553;52.954;5.932;2023-04-19T09:14:15;16.50;39.50
53653;DHT22;39553;52.954;5.932;2023-04-19T09:16:42;16.40;38.10
53653;DHT22;39553;52.954;5.932;2023-04-19T09:19:08;16.70;39.70
53653;DHT22;39553;52.954;5.932;2023-04-19T09:21:36;16.60;38.70
53653;DHT22;39553;52.954;5.932;2023-04-19T09:24:02;16.70;38.50
53653;DHT22;39553;52.954;5.932;2023-04-19T09:26:28;16.80;38.60
53653;DHT22;39553;52.954;5.932;2023-04-19T09:29:01;16.60;37.00
53653;DHT22;39553;52.954;5.932;2023-04-19T09:31:28;16.80;36.80
53653;DHT22;39553;52.954;5.932;2023-04-19T09:33:55;16.50;36.50
53653;DHT22;39553;52.954;5.932;2023-04-19T09:36:31;16.60;36.10
53653;DHT22;39553;52.954;5.932;2023-04-19T09:38:58;16.80;33.30
53653;DHT22;39553;52.954;5.932;2023-04-19T09:41:25;16.80;35.30
53653;DHT22;39553;52.954;5.932;2023-04-19T09:43:52;16.90;34.70
53653;DHT22;39553;52.954;5.932;2023-04-19T09:46:35;16.90;34.80
53653;DHT22;39553;52.954;5.932;2023-04-19T09:51:46;17.30;32.00
53653;DHT22;39553;52.954;5.932;2023-04-19T09:54:13;17.60;36.00
53653;DHT22;39553;52.954;5.932;2023-04-19T09:56:39;17.90;36.40
53653;DHT22;39553;52.954;5.932;2023-04-19T09:59:06;18.00;35.90
53653;DHT22;39553;52.954;5.932;2023-04-19T10:01:53;17.80;34.20
53653;DHT22;39553;52.954;5.932;2023-04-19T10:04:20;18.10;33.10
53653;DHT22;39553;52.954;5.932;2023-04-19T10:06:51;18.20;35.00
53653;DHT22;39553;52.954;5.932;2023-04-19T10:09:20;18.30;34.00
53653;DHT22;39553;52.954;5.932;2023-04-19T10:11:51;18.10;33.20
53653;DHT22;39553;52.954;5.932;2023-04-19T10:14:22;18.20;32.10
53653;DHT22;39553;52.954;5.932;2023-04-19T10:16:49;18.30;33.30
53653;DHT22;39553;52.954;5.932;2023-04-19T10:19:18;18.50;33.40
53653;DHT22;39553;52.954;5.932;2023-04-19T10:21:47;18.70;32.80
53653;DHT22;39553;52.954;5.932;2023-04-19T10:24:14;18.80;32.80
53653;DHT22;39553;52.954;5.932;2023-04-19T10:32:18;18.80;30.00
53653;DHT22;39553;52.954;5.932;2023-04-19T10:34:45;18.70;32.30
53653;DHT22;39553;52.954;5.932;2023-04-19T10:37:12;18.50;32.40
53653;DHT22;39553;52.954;5.932;2023-04-19T10:39:44;18.70;32.30
53653;DHT22;39553;52.954;5.932;2023-04-19T10:42:10;19.10;30.50
53653;DHT22;39553;52.954;5.932;2023-04-19T10:44:37;19.10;31.10
53653;DHT22;39553;52.954;5.932;2023-04-19T10:47:04;19.00;30.70
53653;DHT22;39553;52.954;5.932;2023-04-19T10:49:30;18.60;29.80
53653;DHT22;39553;52.954;5.932;2023-04-19T10:51:56;18.60;29.80
53653;DHT22;39553;52.954;5.932;2023-04-19T10:54:29;18.60;29.60
53653;DHT22;39553;52.954;5.932;2023-04-19T10:57:08;18.90;29.70
53653;DHT22;39553;52.954;5.932;2023-04-19T10:59:36;19.30;28.80
53653;DHT22;39553;52.954;5.932;2023-04-19T11:07:16;19.40;27.50
53653;DHT22;39553;52.954;5.932;2023-04-19T11:09:49;19.30;29.10
53653;DHT22;39553;52.954;5.932;2023-04-19T11:12:18;19.50;28.80
53653;DHT22;39553;52.954;5.932;2023-04-19T11:14:46;19.80;28.80
53653;DHT22;39553;52.954;5.932;2023-04-19T11:17:16;19.90;28.80
53653;DHT22;39553;52.954;5.932;2023-04-19T11:19:44;19.40;27.40
53653;DHT22;39553;52.954;5.932;2023-04-19T11:22:10;19.60;27.50
53653;DHT22;39553;52.954;5.932;2023-04-19T11:24:36;19.50;27.30
53653;DHT22;39553;52.954;5.932;2023-04-19T11:27:07;19.20;27.90
53653;DHT22;39553;52.954;5.932;2023-04-19T11:29:34;19.30;27.90
53653;DHT22;39553;52.954;5.932;2023-04-19T11:32:00;19.50;28.30
53653;DHT22;39553;52.954;5.932;2023-04-19T11:34:26;19.40;27.80
53653;DHT22;39553;52.954;5.932;2023-04-19T11:36:52;19.00;27.40
53653;DHT22;39553;52.954;5.932;2023-04-19T11:39:20;19.20;27.90
53653;DHT22;39553;52.954;5.932;2023-04-19T11:41:46;19.40;27.60
53653;DHT22;39553;52.954;5.932;2023-04-19T11:44:19;19.20;26.50
53653;DHT22;39553;52.954;5.932;2023-04-19T11:47:03;18.80;25.20
53653;DHT22;39553;52.954;5.932;2023-04-19T11:49:32;18.60;25.60
53653;DHT22;39553;52.954;5.932;2023-04-19T11:52:02;18.50;26.90
53653;DHT22;39553;52.954;5.932;2023-04-19T11:54:30;18.40;27.60
53653;DHT22;39553;52.954;5.932;2023-04-19T11:57:01;18.40;28.00
53653;DHT22;39553;52.954;5.932;2023-04-19T11:59:31;18.20;28.20
53653;DHT22;39553;52.954;5.932;2023-04-19T12:02:09;17.90;28.60
53653;DHT22;39553;52.954;5.932;2023-04-19T12:04:36;17.90;28.50
53653;DHT22;39553;52.954;5.932;2023-04-19T12:07:03;17.70;28.40
53653;DHT22;39553;52.954;5.932;2023-04-19T12:09:32;17.60;28.80
53653;DHT22;39553;52.954;5.932;2023-04-19T12:11:58;17.60;28.60
53653;DHT22;39553;52.954;5.932;2023-04-19T12:14:24;17.60;28.90
53653;DHT22;39553;52.954;5.932;2023-04-19T12:17:11;17.50;29.00
53653;DHT22;39553;52.954;5.932;2023-04-19T12:19:45;17.00;28.70
53653;DHT22;39553;52.954;5.932;2023-04-19T12:22:16;16.70;29.60
53653;DHT22;39553;52.954;5.932;2023-04-19T12:24:44;16.50;29.50
53653;DHT22;39553;52.954;5.932;2023-04-19T12:27:10;16.30;28.70
53653;DHT22;39553;52.954;5.932;2023-04-19T12:29:37;16.10;28.90
53653;DHT22;39553;52.954;5.932;2023-04-19T12:32:03;16.10;29.90
53653;DHT22;39553;52.954;5.932;2023-04-19T12:34:29;16.10;30.30
53653;DHT22;39553;52.954;5.932;2023-04-19T12:36:56;16.20;30.00
53653;DHT22;39553;52.954;5.932;2023-04-19T12:39:22;16.30;30.00
53653;DHT22;39553;52.954;5.932;2023-04-19T12:41:48;16.50;30.10
53653;DHT22;39553;52.954;5.932;2023-04-19T12:44:17;16.50;30.20
53653;DHT22;39553;52.954;5.932;2023-04-19T12:46:43;16.40;30.70
53653;DHT22;39553;52.954;5.932;2023-04-19T12:49:09;16.50;31.00
53653;DHT22;39553;52.954;5.932;2023-04-19T12:51:35;16.70;31.00
53653;DHT22;39553;52.954;5.932;2023-04-19T12:54:01;16.60;31.10
53653;DHT22;39553;52.954;5.932;2023-04-19T12:56:27;16.90;31.10
53653;DHT22;39553;52.954;5.932;2023-04-19T12:58:53;16.80;30.30
53653;DHT22;39553;52.954;5.932;2023-04-19T13:01:18;17.30;30.40
53653;DHT22;39553;52.954;5.932;2023-04-19T13:03:44;17.50;30.60
53653;DHT22;39553;52.954;5.932;2023-04-19T13:06:10;17.70;31.10
53653;DHT22;39553;52.954;5.932;2023-04-19T13:08:41;17.60;31.10
53653;DHT22;39553;52.954;5.932;2023-04-19T13:11:08;17.20;30.30
53653;DHT22;39553;52.954;5.932;2023-04-19T13:13:34;17.10;30.10
53653;DHT22;39553;52.954;5.932;2023-04-19T13:16:00;16.90;30.10
53653;DHT22;39553;52.954;5.932;2023-04-19T13:18:26;16.80;30.90
53653;DHT22;39553;52.954;5.932;2023-04-19T13:20:52;17.00;31.50
53653;DHT22;39553;52.954;5.932;2023-04-19T13:23:18;16.60;32.10
53653;DHT22;39553;52.954;5.932;2023-04-19T13:25:45;16.60;32.80
53653;DHT22;39553;52.954;5.932;2023-04-19T13:28:10;16.80;32.50
53653;DHT22;39553;52.954;5.932;2023-04-19T13:30:36;16.40;32.70
53653;DHT22;39553;52.954;5.932;2023-04-19T13:33:02;16.40;34.00
53653;DHT22;39553;52.954;5.932;2023-04-19T13:35:29;16.30;35.20
53653;DHT22;39553;52.954;5.932;2023-04-19T13:37:55;16.10;36.50
53653;DHT22;39553;52.954;5.932;2023-04-19T13:40:21;15.90;36.90
53653;DHT22;39553;52.954;5.932;2023-04-19T13:42:47;15.60;38.50
53653;DHT22;39553;52.954;5.932;2023-04-19T13:45:13;15.50;39.70
53653;DHT22;39553;52.954;5.932;2023-04-19T13:47:39;15.40;40.80
53653;DHT22;39553;52.954;5.932;2023-04-19T13:50:05;15.40;40.90
53653;DHT22;39553;52.954;5.932;2023-04-19T13:52:31;15.40;41.60
53653;DHT22;39553;52.954;5.932;2023-04-19T13:54:57;15.30;41.90
53653;DHT22;39553;52.954;5.932;2023-04-19T13:57:23;15.10;41.70
53653;DHT22;39553;52.954;5.932;2023-04-19T13:59:49;15.10;42.40
53653;DHT22;39553;52.954;5.932;2023-04-19T14:02:18;15.00;42.70
53653;DHT22;39553;52.954;5.932;2023-04-19T14:04:44;14.90;43.00
53653;DHT22;39553;52.954;5.932;2023-04-19T14:07:10;14.90;43.80
53653;DHT22;39553;52.954;5.932;2023-04-19T14:09:36;14.90;44.10
53653;DHT22;39553;52.954;5.932;2023-04-19T14:12:02;14.90;44.20
53653;DHT22;39553;52.954;5.932;2023-04-19T14:14:29;14.50;44.00
53653;DHT22;39553;52.954;5.932;2023-04-19T14:16:55;15.00;44.00
53653;DHT22;39553;52.954;5.932;2023-04-19T14:19:20;15.00;43.90
53653;DHT22;39553;52.954;5.932;2023-04-19T14:21:46;15.00;43.90
53653;DHT22;39553;52.954;5.932;2023-04-19T14:24:12;14.90;43.80
53653;DHT22;39553;52.954;5.932;2023-04-19T14:26:39;14.90;44.10
53653;DHT22;39553;52.954;5.932;2023-04-19T14:29:05;14.80;44.10
53653;DHT22;39553;52.954;5.932;2023-04-19T14:31:31;14.80;43.30
53653;DHT22;39553;52.954;5.932;2023-04-19T14:33:57;14.60;43.50
53653;DHT22;39553;52.954;5.932;2023-04-19T14:36:24;14.60;43.50
53653;DHT22;39553;52.954;5.932;2023-04-19T14:38:53;14.70;44.20
53653;DHT22;39553;52.954;5.932;2023-04-19T14:41:19;14.90;44.40
53653;DHT22;39553;52.954;5.932;2023-04-19T14:43:45;15.10;43.80
53653;DHT22;39553;52.954;5.932;2023-04-19T14:46:11;15.40;43.00
53653;DHT22;39553;52.954;5.932;2023-04-19T14:48:37;15.50;42.50
53653;DHT22;39553;52.954;5.932;2023-04-19T14:51:03;15.50;41.70
53653;DHT22;39553;52.954;5.932;2023-04-19T14:53:29;15.50;42.20
53653;DHT22;39553;52.954;5.932;2023-04-19T14:55:57;15.20;42.00
53653;DHT22;39553;52.954;5.932;2023-04-19T14:58:23;15.90;41.40
53653;DHT22;39553;52.954;5.932;2023-04-19T15:00:49;15.90;40.70
53653;DHT22;39553;52.954;5.932;2023-04-19T15:03:15;16.00;41.00
53653;DHT22;39553;52.954;5.932;2023-04-19T15:05:41;16.10;41.20
53653;DHT22;39553;52.954;5.932;2023-04-19T15:08:07;16.10;40.90
53653;DHT22;39553;52.954;5.932;2023-04-19T15:10:33;16.20;41.50
53653;DHT22;39553;52.954;5.932;2023-04-19T15:12:59;16.20;41.30
53653;DHT22;39553;52.954;5.932;2023-04-19T15:15:25;16.60;41.40
53653;DHT22;39553;52.954;5.932;2023-04-19T15:17:51;16.70;40.90
53653;DHT22;39553;52.954;5.932;2023-04-19T15:20:17;16.70;40.40
53653;DHT22;39553;52.954;5.932;2023-04-19T15:22:43;16.60;40.00
53653;DHT22;39553;52.954;5.932;2023-04-19T15:25:09;16.90;40.50
53653;DHT22;39553;52.954;5.932;2023-04-19T15:27:35;17.00;39.90
53653;DHT22;39553;52.954;5.932;2023-04-19T15:30:01;17.00;39.60
53653;DHT22;39553;52.954;5.932;2023-04-19T15:32:27;16.90;39.70
53653;DHT22;39553;52.954;5.932;2023-04-19T15:34:55;16.20;40.00
53653;DHT22;39553;52.954;5.932;2023-04-19T15:37:21;16.10;40.90
53653;DHT22;39553;52.954;5.932;2023-04-19T15:39:47;16.20;40.40
53653;DHT22;39553;52.954;5.932;2023-04-19T15:42:14;16.40;40.00
53653;DHT22;39553;52.954;5.932;2023-04-19T15:44:40;15.70;40.20
53653;DHT22;39553;52.954;5.932;2023-04-19T15:47:06;16.30;40.10
53653;DHT22;39553;52.954;5.932;2023-04-19T15:49:32;16.20;40.50
53653;DHT22;39553;52.954;5.932;2023-04-19T15:51:58;16.30;40.80